SAS121 ESGG-LROP
Flight info
| Callsign | SAS121 |
|---|---|
| Flight time | 2h 25m |
| Altitude | 35000 |
| Route | TOPLA L996 ERNOV DCT SIMEG Z493 XELOL Z491 VAVUN L996 DENKO L619 ADVAB L623 LENOV DCT KENIN DCT KARIL DCT AXUTA DCT IRLOX DCT BIVBU DCT TOSVI |
| Aircraft | A321/M-SDE3FGHIRWY/LB1 |
Departure
| Time | 2026-04-30 17:58 |
|---|---|
| Airport | Göteborg Landvetter Airport (ESGG) |
Arrival
| Time | 2026-04-30 20:23 |
|---|---|
| Airport | Bucharest Henri Coandă International Airport (LROP) |
| Time | Latitude | Longitude | Altitude | Speed | Heading |
|---|---|---|---|---|---|
| 2026-04-30 17:39 | 57.67049 | 12.29561 | 516 ft | 0 kts | 116° |
| 2026-04-30 17:50 | 57.67067 | 12.29486 | 516 ft | 4 kts | 98° |
| 2026-04-30 17:51 | 57.67053 | 12.29419 | 516 ft | 0 kts | 26° |
| 2026-04-30 17:54 | 57.67134 | 12.29494 | 516 ft | 6 kts | 25° |
| 2026-04-30 17:55 | 57.67302 | 12.29422 | 516 ft | 8 kts | 27° |
| 2026-04-30 17:56 | 57.67446 | 12.29179 | 515 ft | 16 kts | 261° |
| 2026-04-30 17:57 | 57.65857 | 12.27596 | 663 ft | 193 kts | 208° |
| 2026-04-30 17:58 | 57.61486 | 12.23429 | 2345 ft | 251 kts | 206° |
| 2026-04-30 17:59 | 57.54105 | 12.22725 | 4976 ft | 279 kts | 168° |
| 2026-04-30 18:00 | 57.46363 | 12.25128 | 7913 ft | 290 kts | 172° |
| 2026-04-30 18:00 | 57.40172 | 12.26797 | 10967 ft | 321 kts | 171° |
| 2026-04-30 18:01 | 57.35452 | 12.28069 | 12189 ft | 358 kts | 171° |
| 2026-04-30 18:02 | 57.27869 | 12.30105 | 14907 ft | 376 kts | 170° |
| 2026-04-30 18:02 | 57.20042 | 12.32175 | 15416 ft | 380 kts | 171° |
| 2026-04-30 18:03 | 57.12133 | 12.34274 | 16859 ft | 388 kts | 171° |
| 2026-04-30 18:04 | 57.04022 | 12.36297 | 19293 ft | 404 kts | 171° |
| 2026-04-30 18:05 | 56.92637 | 12.39087 | 22097 ft | 422 kts | 172° |
| 2026-04-30 18:06 | 56.80705 | 12.42033 | 24666 ft | 440 kts | 172° |
| 2026-04-30 18:07 | 56.68429 | 12.45032 | 27026 ft | 453 kts | 172° |
| 2026-04-30 18:08 | 56.59267 | 12.49276 | 28670 ft | 460 kts | 148° |
| 2026-04-30 18:09 | 56.48117 | 12.61255 | 30023 ft | 471 kts | 148° |
| 2026-04-30 18:10 | 56.36790 | 12.73387 | 30761 ft | 476 kts | 148° |
| 2026-04-30 18:11 | 56.25353 | 12.85489 | 31525 ft | 476 kts | 148° |
| 2026-04-30 18:11 | 56.16807 | 12.94484 | 32152 ft | 473 kts | 148° |
| 2026-04-30 18:12 | 56.08285 | 13.03409 | 32757 ft | 472 kts | 148° |
| 2026-04-30 18:13 | 56.02617 | 13.09317 | 33158 ft | 471 kts | 148° |
| 2026-04-30 18:13 | 55.95091 | 13.17125 | 33649 ft | 470 kts | 148° |
| 2026-04-30 18:14 | 55.88525 | 13.23935 | 34065 ft | 469 kts | 148° |
| 2026-04-30 18:15 | 55.80080 | 13.32627 | 34615 ft | 466 kts | 148° |
| 2026-04-30 18:15 | 55.71663 | 13.41244 | 35041 ft | 465 kts | 148° |
| 2026-04-30 18:16 | 55.66059 | 13.46959 | 35339 ft | 464 kts | 148° |
| 2026-04-30 18:16 | 55.60495 | 13.52630 | 35423 ft | 458 kts | 148° |
| 2026-04-30 18:17 | 55.54964 | 13.58234 | 35410 ft | 458 kts | 148° |
| 2026-04-30 18:18 | 55.46661 | 13.66616 | 35412 ft | 458 kts | 148° |
| 2026-04-30 18:18 | 55.41120 | 13.72175 | 35405 ft | 458 kts | 148° |
| 2026-04-30 18:19 | 55.35569 | 13.77732 | 35407 ft | 459 kts | 148° |
| 2026-04-30 18:19 | 55.30014 | 13.83273 | 35409 ft | 459 kts | 148° |
| 2026-04-30 18:20 | 55.24455 | 13.88813 | 35413 ft | 459 kts | 148° |
| 2026-04-30 18:20 | 55.18891 | 13.94334 | 35429 ft | 460 kts | 148° |
| 2026-04-30 18:21 | 55.13315 | 13.99865 | 35414 ft | 461 kts | 148° |
| 2026-04-30 18:21 | 55.07731 | 14.05368 | 35413 ft | 461 kts | 148° |
| 2026-04-30 18:22 | 55.02138 | 14.10856 | 35417 ft | 461 kts | 148° |
| 2026-04-30 18:22 | 54.93789 | 14.19037 | 35417 ft | 461 kts | 148° |
| 2026-04-30 18:23 | 54.88190 | 14.24486 | 35417 ft | 461 kts | 148° |
| 2026-04-30 18:23 | 54.82592 | 14.29926 | 35434 ft | 461 kts | 147° |
| 2026-04-30 18:24 | 54.74182 | 14.38053 | 35426 ft | 461 kts | 147° |
| 2026-04-30 18:25 | 54.68577 | 14.43467 | 35422 ft | 461 kts | 147° |
| 2026-04-30 18:25 | 54.60154 | 14.51556 | 35463 ft | 462 kts | 147° |
| 2026-04-30 18:26 | 54.54549 | 14.56911 | 35717 ft | 464 kts | 147° |
| 2026-04-30 18:26 | 54.51729 | 14.59599 | 35843 ft | 464 kts | 147° |
| 2026-04-30 18:26 | 54.48898 | 14.62296 | 36011 ft | 464 kts | 147° |
| 2026-04-30 18:27 | 54.43234 | 14.67670 | 36270 ft | 465 kts | 147° |
| 2026-04-30 18:27 | 54.40400 | 14.70354 | 36389 ft | 465 kts | 147° |
| 2026-04-30 18:28 | 54.34748 | 14.75699 | 36813 ft | 461 kts | 147° |
| 2026-04-30 18:28 | 54.31953 | 14.78334 | 37068 ft | 457 kts | 147° |
| 2026-04-30 18:28 | 54.26409 | 14.83548 | 37401 ft | 454 kts | 147° |
| 2026-04-30 18:29 | 54.15214 | 14.94057 | 37417 ft | 463 kts | 147° |
| 2026-04-30 18:30 | 54.03438 | 15.03286 | 37422 ft | 475 kts | 158° |
| 2026-04-30 18:31 | 53.93985 | 15.08390 | 37421 ft | 475 kts | 158° |
| 2026-04-30 18:32 | 53.84529 | 15.13520 | 37433 ft | 476 kts | 158° |
| 2026-04-30 18:33 | 53.75068 | 15.18635 | 37440 ft | 476 kts | 158° |
| 2026-04-30 18:33 | 53.65635 | 15.23688 | 37450 ft | 476 kts | 158° |
| 2026-04-30 18:34 | 53.56159 | 15.28717 | 37450 ft | 476 kts | 158° |
| 2026-04-30 18:35 | 53.49844 | 15.32069 | 37445 ft | 476 kts | 158° |
| 2026-04-30 18:35 | 53.43756 | 15.36196 | 37451 ft | 470 kts | 150° |
| 2026-04-30 18:36 | 53.35840 | 15.42295 | 37447 ft | 470 kts | 150° |
| 2026-04-30 18:37 | 53.26896 | 15.49122 | 37444 ft | 470 kts | 150° |
| 2026-04-30 18:37 | 53.20943 | 15.53666 | 37420 ft | 470 kts | 149° |
| 2026-04-30 18:38 | 53.15008 | 15.58185 | 37412 ft | 469 kts | 149° |
| 2026-04-30 18:38 | 53.09056 | 15.62705 | 37417 ft | 471 kts | 150° |
| 2026-04-30 18:39 | 53.03089 | 15.67207 | 37422 ft | 471 kts | 150° |
| 2026-04-30 18:39 | 52.97233 | 15.71600 | 37412 ft | 448 kts | 149° |
| 2026-04-30 18:40 | 52.91653 | 15.75759 | 37418 ft | 437 kts | 149° |
| 2026-04-30 18:40 | 52.86098 | 15.79936 | 37415 ft | 439 kts | 149° |
| 2026-04-30 18:41 | 52.80758 | 15.84597 | 37408 ft | 433 kts | 137° |
| 2026-04-30 18:41 | 52.76062 | 15.90706 | 37410 ft | 430 kts | 133° |
| 2026-04-30 18:42 | 52.71382 | 15.96921 | 37413 ft | 433 kts | 134° |
| 2026-04-30 18:42 | 52.64304 | 16.06274 | 37418 ft | 437 kts | 134° |
| 2026-04-30 18:45 | 52.40018 | 16.38026 | 37404 ft | 454 kts | 134° |
| 2026-04-30 18:45 | 52.37535 | 16.41247 | 37409 ft | 456 kts | 134° |
| 2026-04-30 18:46 | 52.32554 | 16.47686 | 37405 ft | 457 kts | 134° |
| 2026-04-30 18:46 | 52.27562 | 16.54121 | 37446 ft | 457 kts | 134° |
| 2026-04-30 18:47 | 52.22564 | 16.60557 | 37435 ft | 458 kts | 134° |
| 2026-04-30 18:47 | 52.17576 | 16.66944 | 37426 ft | 459 kts | 134° |
| 2026-04-30 18:48 | 52.12625 | 16.73461 | 37426 ft | 452 kts | 127° |
| 2026-04-30 18:48 | 52.08285 | 16.80795 | 37421 ft | 450 kts | 126° |
| 2026-04-30 18:49 | 52.03944 | 16.88130 | 37419 ft | 450 kts | 126° |
| 2026-04-30 18:49 | 51.99594 | 16.95424 | 37410 ft | 448 kts | 126° |
| 2026-04-30 18:50 | 51.95261 | 17.02687 | 37416 ft | 448 kts | 126° |
| 2026-04-30 18:50 | 51.90917 | 17.09943 | 37423 ft | 448 kts | 126° |
| 2026-04-30 18:51 | 51.86572 | 17.17170 | 37427 ft | 448 kts | 126° |
| 2026-04-30 18:51 | 51.82215 | 17.24404 | 37427 ft | 448 kts | 126° |
| 2026-04-30 18:52 | 51.77882 | 17.31665 | 37425 ft | 448 kts | 125° |
| 2026-04-30 18:52 | 51.73566 | 17.38922 | 37423 ft | 448 kts | 126° |
| 2026-04-30 18:53 | 51.69218 | 17.46154 | 37434 ft | 449 kts | 126° |
| 2026-04-30 18:53 | 51.64831 | 17.53331 | 37431 ft | 450 kts | 126° |
| 2026-04-30 18:54 | 51.60433 | 17.60487 | 37426 ft | 449 kts | 126° |
| 2026-04-30 18:54 | 51.56041 | 17.67646 | 37424 ft | 449 kts | 126° |
| 2026-04-30 18:55 | 51.51675 | 17.74740 | 37425 ft | 450 kts | 126° |
| 2026-04-30 18:55 | 51.45066 | 17.85448 | 37429 ft | 450 kts | 126° |
| 2026-04-30 18:56 | 51.38410 | 17.96171 | 37409 ft | 455 kts | 126° |
| 2026-04-30 18:57 | 51.31665 | 18.06988 | 37406 ft | 459 kts | 126° |
| 2026-04-30 18:57 | 51.27138 | 18.14238 | 37407 ft | 461 kts | 126° |
| 2026-04-30 18:58 | 51.20295 | 18.25115 | 37409 ft | 464 kts | 127° |
| 2026-04-30 18:59 | 51.13411 | 18.36031 | 37446 ft | 466 kts | 127° |
| 2026-04-30 19:00 | 51.04216 | 18.50561 | 37451 ft | 468 kts | 127° |
| 2026-04-30 19:01 | 50.94948 | 18.65092 | 37430 ft | 468 kts | 127° |
| 2026-04-30 19:02 | 50.88041 | 18.76028 | 37438 ft | 468 kts | 127° |
| 2026-04-30 19:03 | 50.78630 | 18.90340 | 37423 ft | 469 kts | 128° |
| 2026-04-30 19:04 | 50.69185 | 19.04575 | 37396 ft | 469 kts | 129° |
| 2026-04-30 19:05 | 50.59768 | 19.18758 | 37385 ft | 468 kts | 129° |
| 2026-04-30 19:06 | 50.50294 | 19.32899 | 37398 ft | 470 kts | 129° |
| 2026-04-30 19:06 | 50.43073 | 19.43387 | 37420 ft | 472 kts | 130° |
| 2026-04-30 19:07 | 50.35833 | 19.53857 | 37417 ft | 472 kts | 130° |
| 2026-04-30 19:08 | 50.26173 | 19.67835 | 37415 ft | 473 kts | 130° |
| 2026-04-30 19:09 | 50.18954 | 19.78336 | 37373 ft | 472 kts | 130° |
| 2026-04-30 19:09 | 50.14179 | 19.85293 | 37384 ft | 473 kts | 130° |
| 2026-04-30 19:10 | 50.04526 | 19.99248 | 37395 ft | 474 kts | 130° |
| 2026-04-30 19:11 | 49.97328 | 20.09801 | 37402 ft | 475 kts | 130° |
| 2026-04-30 19:12 | 49.92521 | 20.16855 | 37404 ft | 475 kts | 131° |
| 2026-04-30 19:12 | 49.87694 | 20.23877 | 37404 ft | 476 kts | 131° |
| 2026-04-30 19:13 | 49.78001 | 20.37877 | 37399 ft | 475 kts | 131° |
| 2026-04-30 19:14 | 49.73168 | 20.44848 | 37388 ft | 475 kts | 131° |
| 2026-04-30 19:14 | 49.68319 | 20.51812 | 37404 ft | 476 kts | 132° |
| 2026-04-30 19:15 | 49.63482 | 20.58728 | 37399 ft | 477 kts | 132° |
| 2026-04-30 19:15 | 49.56179 | 20.69149 | 37418 ft | 477 kts | 132° |
| 2026-04-30 19:16 | 49.51268 | 20.76142 | 37408 ft | 478 kts | 132° |
| 2026-04-30 19:17 | 49.43955 | 20.86471 | 37404 ft | 478 kts | 132° |
| 2026-04-30 19:17 | 49.36601 | 20.96853 | 37418 ft | 478 kts | 133° |
| 2026-04-30 19:18 | 49.28509 | 21.05971 | 37409 ft | 485 kts | 144° |
| 2026-04-30 19:19 | 49.23747 | 21.10530 | 37396 ft | 486 kts | 144° |
| 2026-04-30 19:19 | 49.15143 | 21.18742 | 37392 ft | 486 kts | 144° |
| 2026-04-30 19:20 | 49.09401 | 21.24212 | 37409 ft | 486 kts | 144° |
| 2026-04-30 19:21 | 49.00792 | 21.32405 | 37391 ft | 486 kts | 144° |
| 2026-04-30 19:22 | 48.89299 | 21.43268 | 37375 ft | 486 kts | 144° |
| 2026-04-30 19:23 | 48.72042 | 21.59454 | 37369 ft | 486 kts | 145° |
| 2026-04-30 19:24 | 48.63445 | 21.67484 | 37368 ft | 486 kts | 145° |
| 2026-04-30 19:25 | 48.49031 | 21.80851 | 37360 ft | 486 kts | 145° |
| 2026-04-30 19:26 | 48.37480 | 21.91507 | 37362 ft | 487 kts | 145° |
| 2026-04-30 19:27 | 48.28806 | 21.99472 | 37389 ft | 487 kts | 146° |
| 2026-04-30 19:28 | 48.20121 | 22.07409 | 37371 ft | 487 kts | 146° |
| 2026-04-30 19:29 | 48.08540 | 22.17951 | 37365 ft | 487 kts | 146° |
| 2026-04-30 19:30 | 47.96958 | 22.28422 | 37355 ft | 487 kts | 147° |
| 2026-04-30 19:31 | 47.85405 | 22.38829 | 37356 ft | 486 kts | 147° |
| 2026-04-30 19:31 | 47.76708 | 22.46618 | 37368 ft | 487 kts | 147° |
| 2026-04-30 19:32 | 47.70909 | 22.51832 | 37349 ft | 487 kts | 147° |
| 2026-04-30 19:32 | 47.65120 | 22.57041 | 37346 ft | 487 kts | 147° |
| 2026-04-30 19:33 | 47.59326 | 22.62251 | 37345 ft | 487 kts | 147° |
| 2026-04-30 19:33 | 47.53524 | 22.67431 | 37341 ft | 487 kts | 147° |
| 2026-04-30 19:34 | 47.47715 | 22.72597 | 37348 ft | 487 kts | 147° |
| 2026-04-30 19:35 | 47.38989 | 22.80337 | 37334 ft | 487 kts | 148° |
| 2026-04-30 19:35 | 47.33182 | 22.85482 | 37336 ft | 487 kts | 148° |
| 2026-04-30 19:36 | 47.27361 | 22.90617 | 37338 ft | 487 kts | 148° |
| 2026-04-30 19:36 | 47.18630 | 22.98304 | 37345 ft | 488 kts | 148° |
| 2026-04-30 19:37 | 47.12801 | 23.03418 | 37333 ft | 488 kts | 148° |
| 2026-04-30 19:37 | 47.06962 | 23.08525 | 37332 ft | 488 kts | 148° |
| 2026-04-30 19:38 | 47.01119 | 23.13620 | 37335 ft | 489 kts | 148° |
| 2026-04-30 19:38 | 46.95264 | 23.18706 | 37346 ft | 490 kts | 148° |
| 2026-04-30 19:39 | 46.89369 | 23.23728 | 37337 ft | 491 kts | 150° |
| 2026-04-30 19:39 | 46.83373 | 23.28380 | 37346 ft | 491 kts | 152° |
| 2026-04-30 19:40 | 46.77278 | 23.32918 | 37350 ft | 492 kts | 153° |
| 2026-04-30 19:40 | 46.71207 | 23.37511 | 37369 ft | 492 kts | 152° |
| 2026-04-30 19:41 | 46.65157 | 23.42181 | 37358 ft | 492 kts | 152° |
| 2026-04-30 19:41 | 46.59113 | 23.46845 | 37338 ft | 492 kts | 152° |
| 2026-04-30 19:42 | 46.53048 | 23.51471 | 37360 ft | 492 kts | 153° |
| 2026-04-30 19:42 | 46.46974 | 23.56068 | 37366 ft | 492 kts | 153° |
| 2026-04-30 19:43 | 46.40908 | 23.60668 | 37370 ft | 492 kts | 153° |
| 2026-04-30 19:44 | 46.31808 | 23.67570 | 37365 ft | 492 kts | 153° |
| 2026-04-30 19:44 | 46.28817 | 23.69834 | 37190 ft | 490 kts | 153° |
| 2026-04-30 19:44 | 46.25810 | 23.72101 | 36701 ft | 485 kts | 153° |
| 2026-04-30 19:44 | 46.22828 | 23.74347 | 36239 ft | 481 kts | 153° |
| 2026-04-30 19:45 | 46.19871 | 23.76567 | 35793 ft | 476 kts | 153° |
| 2026-04-30 19:45 | 46.16944 | 23.78760 | 35351 ft | 473 kts | 153° |
| 2026-04-30 19:45 | 46.14037 | 23.80938 | 34917 ft | 469 kts | 153° |
| 2026-04-30 19:45 | 46.11148 | 23.83099 | 34497 ft | 466 kts | 153° |
| 2026-04-30 19:46 | 46.08279 | 23.85242 | 34006 ft | 462 kts | 153° |
| 2026-04-30 19:46 | 46.05439 | 23.87362 | 33512 ft | 459 kts | 153° |
| 2026-04-30 19:46 | 46.02613 | 23.89476 | 33025 ft | 455 kts | 153° |
| 2026-04-30 19:46 | 45.99817 | 23.91567 | 32549 ft | 451 kts | 152° |
| 2026-04-30 19:47 | 45.97050 | 23.93632 | 32079 ft | 447 kts | 152° |
| 2026-04-30 19:47 | 45.95220 | 23.94998 | 31765 ft | 445 kts | 152° |
| 2026-04-30 19:47 | 45.91564 | 23.97714 | 31154 ft | 440 kts | 152° |
| 2026-04-30 19:47 | 45.88855 | 23.99721 | 30705 ft | 436 kts | 152° |
| 2026-04-30 19:48 | 45.86166 | 24.01714 | 30235 ft | 433 kts | 151° |
| 2026-04-30 19:48 | 45.83499 | 24.03688 | 29695 ft | 429 kts | 152° |
| 2026-04-30 19:48 | 45.80861 | 24.05636 | 29211 ft | 425 kts | 152° |
| 2026-04-30 19:48 | 45.78246 | 24.07564 | 28661 ft | 423 kts | 152° |
| 2026-04-30 19:49 | 45.75614 | 24.09507 | 27883 ft | 427 kts | 151° |
| 2026-04-30 19:49 | 45.70393 | 24.13361 | 26812 ft | 422 kts | 151° |
| 2026-04-30 19:49 | 45.67789 | 24.15279 | 26345 ft | 420 kts | 151° |
| 2026-04-30 19:50 | 45.65168 | 24.17095 | 25886 ft | 418 kts | 156° |
| 2026-04-30 19:50 | 45.62423 | 24.18421 | 25429 ft | 417 kts | 165° |
| 2026-04-30 19:50 | 45.59582 | 24.19213 | 24945 ft | 415 kts | 172° |
| 2026-04-30 19:50 | 45.56736 | 24.19792 | 24507 ft | 412 kts | 171° |
| 2026-04-30 19:51 | 45.53906 | 24.20380 | 24041 ft | 410 kts | 171° |
| 2026-04-30 19:51 | 45.51095 | 24.20970 | 23545 ft | 407 kts | 171° |
| 2026-04-30 19:51 | 45.48306 | 24.21558 | 23040 ft | 404 kts | 171° |
| 2026-04-30 19:51 | 45.45536 | 24.22142 | 22571 ft | 400 kts | 171° |
| 2026-04-30 19:52 | 45.42797 | 24.22719 | 22064 ft | 397 kts | 171° |
| 2026-04-30 19:52 | 45.40072 | 24.23289 | 21583 ft | 394 kts | 171° |
| 2026-04-30 19:52 | 45.37373 | 24.23850 | 21089 ft | 391 kts | 171° |
| 2026-04-30 19:52 | 45.34698 | 24.24401 | 20603 ft | 387 kts | 171° |
| 2026-04-30 19:53 | 45.32037 | 24.24946 | 20146 ft | 384 kts | 171° |
| 2026-04-30 19:53 | 45.29404 | 24.25483 | 19729 ft | 381 kts | 171° |
| 2026-04-30 19:53 | 45.26786 | 24.26021 | 19286 ft | 379 kts | 171° |
| 2026-04-30 19:53 | 45.24182 | 24.26561 | 18829 ft | 377 kts | 171° |
| 2026-04-30 19:54 | 45.21573 | 24.27103 | 18086 ft | 381 kts | 171° |
| 2026-04-30 19:54 | 45.18948 | 24.27648 | 17516 ft | 380 kts | 171° |
| 2026-04-30 19:54 | 45.16343 | 24.28189 | 16997 ft | 377 kts | 171° |
| 2026-04-30 19:54 | 45.13758 | 24.28722 | 16486 ft | 374 kts | 171° |
| 2026-04-30 19:55 | 45.11188 | 24.29246 | 15972 ft | 372 kts | 171° |
| 2026-04-30 19:55 | 45.08639 | 24.29764 | 15489 ft | 369 kts | 171° |
| 2026-04-30 19:55 | 45.06109 | 24.30280 | 15024 ft | 366 kts | 171° |
| 2026-04-30 19:55 | 45.03602 | 24.30795 | 14559 ft | 363 kts | 171° |
| 2026-04-30 19:56 | 45.01119 | 24.31321 | 14348 ft | 360 kts | 168° |
| 2026-04-30 19:56 | 44.98708 | 24.32250 | 14358 ft | 360 kts | 158° |
| 2026-04-30 19:56 | 44.96471 | 24.33702 | 14358 ft | 358 kts | 148° |
| 2026-04-30 19:56 | 44.94395 | 24.35703 | 14363 ft | 356 kts | 137° |
| 2026-04-30 19:57 | 44.92645 | 24.38078 | 14366 ft | 352 kts | 128° |
| 2026-04-30 19:57 | 44.91190 | 24.40831 | 14357 ft | 349 kts | 118° |
| 2026-04-30 19:57 | 44.90081 | 24.43837 | 14356 ft | 340 kts | 109° |
| 2026-04-30 19:57 | 44.89337 | 24.46958 | 14361 ft | 334 kts | 101° |
| 2026-04-30 19:58 | 44.88723 | 24.50112 | 14360 ft | 333 kts | 101° |
| 2026-04-30 19:58 | 44.88100 | 24.53257 | 14362 ft | 333 kts | 102° |
| 2026-04-30 19:58 | 44.87471 | 24.56400 | 14361 ft | 333 kts | 102° |
| 2026-04-30 19:58 | 44.86837 | 24.59552 | 14361 ft | 333 kts | 102° |
| 2026-04-30 19:59 | 44.86205 | 24.62690 | 14361 ft | 333 kts | 102° |
| 2026-04-30 19:59 | 44.85573 | 24.65836 | 14360 ft | 333 kts | 102° |
| 2026-04-30 19:59 | 44.84319 | 24.72129 | 14364 ft | 334 kts | 103° |
| 2026-04-30 20:00 | 44.83694 | 24.75272 | 14364 ft | 332 kts | 103° |
| 2026-04-30 20:00 | 44.83065 | 24.78405 | 14361 ft | 333 kts | 103° |
| 2026-04-30 20:00 | 44.82432 | 24.81542 | 14361 ft | 333 kts | 103° |
| 2026-04-30 20:00 | 44.81798 | 24.84673 | 14361 ft | 333 kts | 103° |
| 2026-04-30 20:01 | 44.80535 | 24.90905 | 14358 ft | 333 kts | 103° |
| 2026-04-30 20:01 | 44.79898 | 24.94049 | 14357 ft | 333 kts | 103° |
| 2026-04-30 20:01 | 44.79263 | 24.97181 | 14360 ft | 333 kts | 103° |
| 2026-04-30 20:02 | 44.77991 | 25.03439 | 14361 ft | 333 kts | 103° |
| 2026-04-30 20:02 | 44.77354 | 25.06566 | 14354 ft | 332 kts | 105° |
| 2026-04-30 20:03 | 44.76075 | 25.12810 | 14354 ft | 331 kts | 105° |
| 2026-04-30 20:03 | 44.75434 | 25.15925 | 14357 ft | 331 kts | 104° |
| 2026-04-30 20:03 | 44.74861 | 25.19048 | 14108 ft | 328 kts | 102° |
| 2026-04-30 20:03 | 44.74372 | 25.22171 | 13603 ft | 326 kts | 100° |
| 2026-04-30 20:04 | 44.73931 | 25.25240 | 13125 ft | 323 kts | 99° |
| 2026-04-30 20:04 | 44.73637 | 25.27326 | 12803 ft | 321 kts | 99° |
| 2026-04-30 20:04 | 44.73200 | 25.30394 | 12341 ft | 319 kts | 99° |
| 2026-04-30 20:05 | 44.72155 | 25.37418 | 11290 ft | 313 kts | 99° |
| 2026-04-30 20:05 | 44.71698 | 25.40410 | 10779 ft | 313 kts | 99° |
| 2026-04-30 20:05 | 44.71209 | 25.45463 | 9922 ft | 310 kts | 86° |
| 2026-04-30 20:06 | 44.71407 | 25.48465 | 9379 ft | 308 kts | 81° |
| 2026-04-30 20:06 | 44.71655 | 25.51446 | 8835 ft | 307 kts | 81° |
| 2026-04-30 20:06 | 44.71898 | 25.54420 | 8308 ft | 306 kts | 81° |
| 2026-04-30 20:06 | 44.72137 | 25.57390 | 7788 ft | 305 kts | 81° |
| 2026-04-30 20:07 | 44.72372 | 25.60341 | 7280 ft | 303 kts | 81° |
| 2026-04-30 20:07 | 44.72603 | 25.63252 | 7010 ft | 293 kts | 81° |
| 2026-04-30 20:07 | 44.73031 | 25.68723 | 6992 ft | 281 kts | 81° |
| 2026-04-30 20:08 | 44.73247 | 25.71455 | 6995 ft | 281 kts | 81° |
| 2026-04-30 20:08 | 44.73438 | 25.74190 | 7001 ft | 282 kts | 86° |
| 2026-04-30 20:08 | 44.73010 | 25.76882 | 7007 ft | 289 kts | 115° |
| 2026-04-30 20:08 | 44.71667 | 25.79002 | 6999 ft | 298 kts | 144° |
| 2026-04-30 20:09 | 44.69701 | 25.79957 | 7001 ft | 305 kts | 171° |
| 2026-04-30 20:09 | 44.67583 | 25.80256 | 7007 ft | 308 kts | 178° |
| 2026-04-30 20:09 | 44.63564 | 25.78271 | 7037 ft | 310 kts | 207° |
| 2026-04-30 20:10 | 44.60824 | 25.74065 | 7489 ft | 285 kts | 264° |
| 2026-04-30 20:10 | 44.60726 | 25.71398 | 7519 ft | 264 kts | 278° |
| 2026-04-30 20:10 | 44.60921 | 25.68866 | 7509 ft | 260 kts | 281° |
| 2026-04-30 20:11 | 44.61421 | 25.63876 | 7057 ft | 259 kts | 282° |
| 2026-04-30 20:11 | 44.61688 | 25.61347 | 6544 ft | 265 kts | 282° |
| 2026-04-30 20:11 | 44.61953 | 25.58756 | 6005 ft | 271 kts | 280° |
| 2026-04-30 20:12 | 44.61735 | 25.53341 | 4963 ft | 284 kts | 266° |
| 2026-04-30 20:12 | 44.61443 | 25.50577 | 4433 ft | 289 kts | 254° |
| 2026-04-30 20:12 | 44.60440 | 25.48242 | 4313 ft | 270 kts | 224° |
| 2026-04-30 20:13 | 44.58940 | 25.46878 | 3953 ft | 248 kts | 195° |
| 2026-04-30 20:13 | 44.57302 | 25.46588 | 3549 ft | 232 kts | 169° |
| 2026-04-30 20:13 | 44.55709 | 25.46875 | 3489 ft | 228 kts | 168° |
| 2026-04-30 20:13 | 44.54188 | 25.47389 | 3497 ft | 222 kts | 150° |
| 2026-04-30 20:14 | 44.52988 | 25.48661 | 3498 ft | 215 kts | 126° |
| 2026-04-30 20:14 | 44.52280 | 25.50455 | 3496 ft | 209 kts | 104° |
| 2026-04-30 20:14 | 44.52133 | 25.52444 | 3497 ft | 205 kts | 83° |
| 2026-04-30 20:14 | 44.52301 | 25.54431 | 3497 ft | 205 kts | 82° |
| 2026-04-30 20:15 | 44.52448 | 25.56408 | 3492 ft | 202 kts | 82° |
| 2026-04-30 20:15 | 44.52596 | 25.58362 | 3498 ft | 201 kts | 82° |
| 2026-04-30 20:15 | 44.52750 | 25.60305 | 3499 ft | 200 kts | 82° |
| 2026-04-30 20:15 | 44.52903 | 25.62206 | 3344 ft | 196 kts | 82° |
| 2026-04-30 20:16 | 44.53055 | 25.64105 | 2833 ft | 197 kts | 82° |
| 2026-04-30 20:16 | 44.53208 | 25.66007 | 2517 ft | 195 kts | 81° |
| 2026-04-30 20:16 | 44.53359 | 25.67902 | 2498 ft | 196 kts | 81° |
| 2026-04-30 20:16 | 44.53511 | 25.69804 | 2498 ft | 197 kts | 81° |
| 2026-04-30 20:17 | 44.53663 | 25.71707 | 2497 ft | 196 kts | 81° |
| 2026-04-30 20:17 | 44.53814 | 25.73610 | 2499 ft | 196 kts | 81° |
| 2026-04-30 20:17 | 44.53965 | 25.75513 | 2501 ft | 197 kts | 81° |
| 2026-04-30 20:17 | 44.54116 | 25.77425 | 2503 ft | 197 kts | 81° |
| 2026-04-30 20:18 | 44.54266 | 25.79329 | 2506 ft | 196 kts | 81° |
| 2026-04-30 20:18 | 44.54416 | 25.81231 | 2507 ft | 196 kts | 81° |
| 2026-04-30 20:18 | 44.54566 | 25.83135 | 2506 ft | 197 kts | 81° |
| 2026-04-30 20:18 | 44.54715 | 25.85041 | 2506 ft | 197 kts | 81° |
| 2026-04-30 20:19 | 44.54864 | 25.86946 | 2507 ft | 196 kts | 82° |
| 2026-04-30 20:19 | 44.55012 | 25.88843 | 2504 ft | 191 kts | 81° |
| 2026-04-30 20:19 | 44.55147 | 25.90592 | 2484 ft | 173 kts | 81° |
| 2026-04-30 20:19 | 44.55274 | 25.92222 | 2360 ft | 165 kts | 81° |
| 2026-04-30 20:20 | 44.55397 | 25.93803 | 2186 ft | 159 kts | 82° |
| 2026-04-30 20:20 | 44.55515 | 25.95321 | 1997 ft | 155 kts | 82° |
| 2026-04-30 20:20 | 44.55629 | 25.96799 | 1832 ft | 148 kts | 82° |
| 2026-04-30 20:20 | 44.55738 | 25.98203 | 1635 ft | 146 kts | 82° |
| 2026-04-30 20:21 | 44.55847 | 25.99611 | 1450 ft | 145 kts | 82° |
| 2026-04-30 20:21 | 44.55955 | 26.01018 | 1255 ft | 146 kts | 83° |
| 2026-04-30 20:21 | 44.56064 | 26.02441 | 1053 ft | 147 kts | 83° |
| 2026-04-30 20:21 | 44.56175 | 26.03876 | 849 ft | 148 kts | 83° |
| 2026-04-30 20:22 | 44.56285 | 26.05321 | 672 ft | 149 kts | 83° |
| 2026-04-30 20:22 | 44.56401 | 26.06768 | 472 ft | 150 kts | 83° |
| 2026-04-30 20:22 | 44.56515 | 26.08219 | 329 ft | 148 kts | 84° |
| 2026-04-30 20:22 | 44.56612 | 26.09465 | 320 ft | 108 kts | 84° |
| 2026-04-30 20:23 | 44.56670 | 26.10362 | 322 ft | 71 kts | 83° |
| 2026-04-30 20:23 | 44.56702 | 26.10703 | 321 ft | 11 kts | 69° |
| 2026-04-30 20:23 | 44.56718 | 26.10737 | 320 ft | 1 kts | 46° |
| 2026-04-30 20:23 | 44.56748 | 26.10756 | 321 ft | 6 kts | 12° |
| 2026-04-30 20:24 | 44.56790 | 26.10759 | 321 ft | 7 kts | 0° |
| 2026-04-30 20:24 | 44.56840 | 26.10754 | 321 ft | 8 kts | 354° |
| 2026-04-30 20:24 | 44.56899 | 26.10745 | 320 ft | 9 kts | 353° |
| 2026-04-30 20:24 | 44.56963 | 26.10731 | 320 ft | 10 kts | 347° |
| 2026-04-30 20:25 | 44.57044 | 26.10607 | 320 ft | 9 kts | 296° |
| 2026-04-30 20:25 | 44.57065 | 26.10524 | 320 ft | 9 kts | 271° |
| 2026-04-30 20:26 | 44.57056 | 26.10333 | 320 ft | 9 kts | 264° |
| 2026-04-30 20:26 | 44.57043 | 26.10159 | 320 ft | 9 kts | 263° |
| 2026-04-30 20:26 | 44.57035 | 26.10069 | 320 ft | 9 kts | 263° |
| 2026-04-30 20:27 | 44.57022 | 26.09896 | 320 ft | 8 kts | 264° |
| 2026-04-30 20:27 | 44.57011 | 26.09756 | 320 ft | 6 kts | 263° |
| 2026-04-30 20:28 | 44.57000 | 26.09611 | 320 ft | 5 kts | 264° |
| 2026-04-30 20:28 | 44.56996 | 26.09562 | 320 ft | 4 kts | 264° |
| 2026-04-30 20:29 | 44.56985 | 26.09434 | 320 ft | 1 kts | 257° |
| 2026-04-30 20:30 | 44.56954 | 26.09415 | 320 ft | 2 kts | 188° |
| 2026-04-30 20:30 | 44.56923 | 26.09419 | 320 ft | 0 kts | 173° |